createdAt,value
2023-04-14T00:00:25.975Z,61.13
2023-04-14T00:02:52.414Z,63.42
2023-04-14T00:05:18.925Z,64.65
2023-04-14T00:07:45.302Z,62.03
2023-04-14T00:10:11.611Z,60.44
2023-04-14T00:12:37.971Z,60.87
2023-04-14T00:15:04.295Z,60.90
2023-04-14T00:17:30.635Z,61.76
2023-04-14T00:19:56.972Z,61.49
2023-04-14T00:22:23.268Z,64.85
2023-04-14T00:24:49.570Z,62.18
2023-04-14T00:27:15.898Z,63.99
2023-04-14T00:29:42.191Z,62.74
2023-04-14T00:32:08.486Z,64.23
2023-04-14T00:34:34.805Z,63.23
2023-04-14T00:37:01.092Z,63.75
2023-04-14T00:39:27.376Z,64.66
2023-04-14T00:41:53.690Z,62.30
2023-04-14T00:44:19.995Z,62.68
2023-04-14T00:46:46.383Z,65.38
2023-04-14T00:49:12.743Z,63.00
2023-04-14T00:51:39.043Z,63.09
2023-04-14T00:54:05.354Z,62.76
2023-04-14T00:56:31.690Z,65.44
2023-04-14T00:58:58.058Z,65.79
2023-04-14T01:01:24.403Z,66.96
2023-04-14T01:03:50.977Z,65.04
2023-04-14T01:06:17.378Z,64.26
2023-04-14T01:08:43.682Z,65.92
2023-04-14T01:11:09.994Z,66.43
2023-04-14T01:13:36.302Z,64.17
2023-04-14T01:16:02.656Z,63.39
2023-04-14T01:18:29.074Z,67.50
2023-04-14T01:20:55.387Z,65.50
2023-04-14T01:23:21.714Z,63.68
2023-04-14T01:25:48.025Z,62.55
2023-04-14T01:28:14.323Z,63.18
2023-04-14T01:30:40.609Z,65.13
2023-04-14T01:33:06.923Z,67.65
2023-04-14T01:35:33.229Z,65.43
2023-04-14T01:37:59.521Z,65.34
2023-04-14T01:40:25.837Z,63.64
2023-04-14T01:42:52.129Z,67.26
2023-04-14T01:45:18.416Z,67.07
2023-04-14T01:47:44.894Z,65.16
2023-04-14T01:50:11.269Z,63.36
2023-04-14T01:52:37.580Z,63.10
2023-04-14T01:55:03.912Z,64.00
2023-04-14T01:57:30.197Z,63.50
2023-04-14T01:59:56.485Z,66.40
2023-04-14T02:02:22.920Z,66.06
2023-04-14T02:04:49.274Z,67.22
2023-04-14T02:07:15.591Z,65.65
2023-04-14T02:09:41.937Z,64.91
2023-04-14T02:12:08.237Z,67.17
2023-04-14T02:14:34.542Z,66.53
2023-04-14T02:17:00.925Z,63.19
2023-04-14T02:19:27.273Z,64.24
2023-04-14T02:21:53.573Z,66.95
2023-04-14T02:24:19.943Z,66.53
2023-04-14T02:26:46.237Z,65.95
2023-04-14T02:29:12.526Z,65.02
2023-04-14T02:31:38.826Z,65.38
2023-04-14T02:34:05.118Z,64.35
2023-04-14T02:36:31.437Z,64.24
2023-04-14T02:38:57.818Z,64.58
2023-04-14T02:41:24.182Z,63.60
2023-04-14T02:43:50.488Z,66.19
2023-04-14T02:46:16.838Z,64.93
2023-04-14T02:48:43.157Z,63.84
2023-04-14T02:51:09.451Z,62.36
2023-04-14T02:53:35.754Z,64.26
2023-04-14T02:56:02.042Z,65.08
2023-04-14T02:58:28.332Z,66.46
2023-04-14T03:00:54.640Z,65.54
2023-04-14T03:03:20.952Z,63.91
2023-04-14T03:05:47.279Z,64.38
2023-04-14T03:08:13.603Z,64.02
2023-04-14T03:10:39.908Z,65.52
2023-04-14T03:13:06.228Z,64.68
2023-04-14T03:15:32.557Z,65.06
2023-04-14T03:17:58.928Z,65.28
2023-04-14T03:20:25.269Z,66.51
2023-04-14T03:22:51.580Z,64.43
2023-04-14T03:25:17.871Z,64.71
2023-04-14T03:27:44.205Z,66.01
2023-04-14T03:30:10.542Z,64.01
2023-04-14T03:32:36.880Z,66.36
2023-04-14T03:35:03.208Z,65.58
2023-04-14T03:37:29.503Z,64.47
2023-04-14T03:39:55.787Z,63.19
2023-04-14T03:42:22.062Z,64.67
2023-04-14T03:44:48.365Z,63.86
2023-04-14T03:47:14.654Z,64.17
2023-04-14T03:49:41.269Z,64.40
2023-04-14T03:52:07.562Z,64.10
2023-04-14T03:54:33.861Z,65.37
2023-04-14T03:57:00.148Z,64.90
2023-04-14T03:59:26.462Z,64.65
2023-04-14T04:01:52.791Z,65.43
2023-04-14T04:04:19.197Z,66.02
2023-04-14T04:06:45.587Z,65.87
2023-04-14T04:09:11.892Z,66.79
2023-04-14T04:11:38.183Z,65.42
2023-04-14T04:14:04.503Z,65.65
2023-04-14T04:16:30.846Z,66.22
2023-04-14T04:18:57.156Z,67.73
2023-04-14T04:21:23.457Z,65.70
2023-04-14T04:23:49.767Z,64.34
2023-04-14T04:26:16.066Z,64.79
2023-04-14T04:28:42.390Z,66.08
2023-04-14T04:31:08.708Z,66.49
2023-04-14T04:33:35.003Z,66.17
2023-04-14T04:36:01.340Z,66.83
2023-04-14T04:38:27.641Z,67.02
2023-04-14T04:40:53.967Z,65.29
2023-04-14T04:43:20.287Z,66.40
2023-04-14T04:45:46.600Z,67.98
2023-04-14T04:48:12.952Z,67.48
2023-04-14T04:50:39.267Z,66.92
2023-04-14T04:53:05.563Z,67.10
2023-04-14T04:55:31.851Z,66.76
2023-04-14T04:57:58.168Z,66.97
2023-04-14T05:00:24.455Z,67.13
2023-04-14T05:02:50.823Z,67.99
2023-04-14T05:05:17.240Z,68.08
2023-04-14T05:07:43.611Z,67.62
2023-04-14T05:10:09.906Z,68.18
2023-04-14T05:12:36.234Z,66.36
2023-04-14T05:15:02.588Z,68.37
2023-04-14T05:17:28.910Z,66.86
2023-04-14T05:19:55.223Z,66.30
2023-04-14T05:22:21.506Z,66.91
2023-04-14T05:24:47.800Z,66.48
2023-04-14T05:27:14.824Z,66.71
2023-04-14T05:29:41.269Z,66.46
2023-04-14T05:32:07.560Z,65.51
2023-04-14T05:34:33.879Z,65.85
2023-04-14T05:37:00.268Z,68.09
2023-04-14T05:39:26.555Z,67.44
2023-04-14T05:41:52.929Z,67.38
2023-04-14T05:44:19.230Z,66.78
2023-04-14T05:46:45.556Z,66.52
2023-04-14T05:49:11.886Z,68.15
2023-04-14T05:51:38.574Z,67.36
2023-04-14T05:54:05.201Z,67.99
2023-04-14T05:56:31.520Z,66.48
2023-04-14T05:58:57.819Z,66.82
2023-04-14T06:01:24.106Z,66.38
2023-04-14T06:03:50.694Z,65.66
2023-04-14T06:06:17.148Z,65.35
2023-04-14T06:08:43.440Z,64.81
2023-04-14T06:11:09.764Z,65.58
2023-04-14T06:13:36.589Z,66.52
2023-04-14T06:16:03.045Z,66.96
2023-04-14T06:18:29.364Z,65.74
2023-04-14T06:20:55.670Z,65.87
2023-04-14T06:23:21.995Z,66.14
2023-04-14T06:25:48.300Z,66.49
2023-04-14T06:28:14.647Z,66.52
2023-04-14T06:30:40.949Z,67.58
2023-04-14T06:33:07.319Z,68.05
2023-04-14T06:35:34.196Z,68.10
2023-04-14T06:38:00.582Z,66.99
2023-04-14T06:40:26.905Z,67.74
2023-04-14T06:42:53.321Z,66.86
2023-04-14T06:45:19.638Z,65.69
2023-04-14T06:47:46.053Z,65.77
2023-04-14T06:50:12.407Z,67.10
2023-04-14T06:52:38.698Z,66.75
2023-04-14T06:55:05.016Z,66.83
2023-04-14T06:57:31.311Z,65.72
2023-04-14T06:59:57.598Z,65.33
2023-04-14T07:02:23.954Z,64.94
2023-04-14T07:04:50.321Z,63.73
2023-04-14T07:09:43.083Z,63.41
2023-04-14T07:12:09.450Z,62.54
2023-04-14T07:14:35.743Z,63.56
2023-04-14T07:17:02.080Z,62.19
2023-04-14T07:19:28.389Z,61.95
2023-04-14T07:21:54.675Z,62.16
2023-04-14T07:24:21.020Z,59.59
2023-04-14T07:26:47.326Z,59.73
2023-04-14T07:29:13.629Z,59.75
2023-04-14T07:31:39.987Z,60.77
2023-04-14T07:34:06.430Z,60.57
2023-04-14T07:36:32.733Z,59.10
2023-04-14T07:38:59.050Z,59.96
2023-04-14T07:41:25.360Z,59.25
2023-04-14T07:43:51.664Z,59.72
2023-04-14T07:46:18.029Z,58.92
2023-04-14T07:48:44.350Z,59.78
2023-04-14T07:51:10.694Z,60.65
2023-04-14T07:53:37.055Z,59.58
2023-04-14T07:56:03.371Z,58.08
2023-04-14T07:58:29.914Z,58.31
2023-04-14T08:00:56.471Z,58.35
2023-04-14T08:03:22.934Z,56.49
2023-04-14T08:05:49.562Z,57.62
2023-04-14T08:08:15.982Z,55.92
2023-04-14T08:10:42.295Z,55.44
2023-04-14T08:13:08.617Z,57.21
2023-04-14T08:15:34.945Z,56.98
2023-04-14T08:18:01.289Z,53.43
2023-04-14T08:20:27.602Z,54.16
2023-04-14T08:22:53.924Z,52.29
2023-04-14T08:25:20.226Z,51.78
2023-04-14T08:27:46.528Z,51.21
2023-04-14T08:30:12.847Z,50.54
2023-04-14T08:32:39.144Z,49.72
2023-04-14T08:35:36.914Z,51.13
2023-04-14T08:37:51.868Z,49.31
2023-04-14T08:40:18.188Z,48.87
2023-04-14T08:42:44.489Z,48.96
2023-04-14T08:45:10.816Z,49.74
2023-04-14T08:47:37.147Z,48.89
2023-04-14T08:50:03.486Z,49.91
2023-04-14T08:52:29.805Z,48.20
2023-04-14T08:54:56.104Z,46.78
2023-04-14T08:57:22.406Z,47.91
2023-04-14T08:59:48.774Z,47.51
2023-04-14T09:02:15.149Z,47.94
2023-04-14T09:04:41.566Z,48.11
2023-04-14T09:07:08.003Z,46.92
2023-04-14T09:09:34.312Z,46.13
2023-04-14T09:12:00.614Z,46.66
2023-04-14T09:14:26.934Z,45.06
2023-04-14T09:16:53.303Z,46.09
2023-04-14T09:19:19.608Z,45.70
2023-04-14T09:21:52.070Z,46.10
2023-04-14T09:24:20.409Z,42.87
2023-04-14T09:26:46.903Z,45.09
2023-04-14T09:29:13.203Z,43.03
2023-04-14T09:31:39.600Z,41.33
2023-04-14T09:34:06.049Z,39.32
2023-04-14T09:36:32.387Z,39.37
2023-04-14T09:38:58.697Z,40.60
2023-04-14T09:41:25.023Z,39.72
2023-04-14T09:43:51.329Z,38.46
2023-04-14T09:46:17.672Z,39.37
2023-04-14T09:48:44.010Z,39.36
2023-04-14T09:51:10.321Z,40.25
2023-04-14T09:53:36.644Z,40.65
2023-04-14T09:56:02.959Z,40.97
2023-04-14T09:58:29.349Z,39.77
2023-04-14T10:00:55.654Z,39.15
2023-04-14T10:03:22.173Z,40.55
2023-04-14T10:05:48.534Z,38.38
2023-04-14T10:08:14.833Z,39.60
2023-04-14T10:10:41.218Z,39.90
2023-04-14T10:13:07.516Z,42.64
2023-04-14T10:15:33.952Z,42.31
2023-04-14T10:18:00.461Z,44.96
2023-04-14T10:20:26.789Z,45.46
2023-04-14T10:22:53.089Z,43.54
2023-04-14T10:25:19.423Z,42.81
2023-04-14T10:27:45.726Z,44.50
2023-04-14T10:30:12.010Z,45.07
2023-04-14T10:32:38.370Z,43.24
2023-04-14T10:35:04.717Z,42.86
2023-04-14T10:37:31.025Z,45.69
2023-04-14T10:39:57.352Z,44.84
2023-04-14T10:42:23.653Z,44.40
2023-04-14T10:44:49.951Z,45.15
2023-04-14T10:47:16.327Z,44.11
2023-04-14T10:49:42.640Z,44.72
2023-04-14T10:52:08.943Z,43.06
2023-04-14T10:54:35.253Z,42.32
2023-04-14T10:57:01.565Z,41.77
2023-04-14T10:59:27.877Z,44.95
2023-04-14T11:01:54.335Z,46.26
2023-04-14T11:04:20.835Z,44.05
2023-04-14T11:06:47.307Z,43.91
2023-04-14T11:09:13.797Z,42.73
2023-04-14T11:11:40.373Z,42.75
2023-04-14T11:14:06.674Z,43.33
2023-04-14T11:16:33.014Z,43.12
2023-04-14T11:18:59.365Z,44.11
2023-04-14T11:21:25.682Z,44.71
2023-04-14T11:23:51.982Z,41.50
2023-04-14T11:26:18.270Z,42.03
2023-04-14T11:28:44.717Z,44.36
2023-04-14T11:31:11.035Z,41.62
2023-04-14T11:33:37.399Z,41.89
2023-04-14T11:36:03.789Z,44.30
2023-04-14T11:38:30.124Z,41.52
2023-04-14T11:40:56.432Z,41.21
2023-04-14T11:43:22.961Z,41.12
2023-04-14T11:45:49.383Z,41.85
2023-04-14T11:48:15.700Z,40.66
2023-04-14T11:50:41.994Z,40.99
2023-04-14T11:53:08.318Z,45.48
2023-04-14T11:55:34.637Z,43.46
2023-04-14T11:58:01.077Z,42.87
2023-04-14T12:00:27.414Z,40.71
2023-04-14T12:02:53.882Z,42.23
2023-04-14T12:05:20.288Z,42.44
2023-04-14T12:07:46.629Z,43.11
2023-04-14T12:10:12.914Z,40.21
2023-04-14T12:12:39.205Z,37.61
2023-04-14T12:15:05.559Z,37.43
2023-04-14T12:17:31.945Z,40.21
2023-04-14T12:19:58.328Z,43.95
2023-04-14T12:22:24.662Z,40.71
2023-04-14T12:24:50.964Z,41.31
2023-04-14T12:27:17.244Z,39.53
2023-04-14T12:29:43.561Z,38.42
2023-04-14T12:32:09.853Z,39.18
2023-04-14T12:34:36.155Z,37.77
2023-04-14T12:37:02.478Z,41.88
2023-04-14T12:39:28.784Z,42.70
2023-04-14T12:41:55.083Z,41.27
2023-04-14T12:44:21.401Z,38.44
2023-04-14T12:46:47.731Z,40.87
2023-04-14T12:49:14.040Z,39.73
2023-04-14T12:51:40.411Z,38.59
2023-04-14T12:54:06.741Z,39.49
2023-04-14T12:56:33.039Z,39.55
2023-04-14T12:58:59.648Z,41.81
2023-04-14T13:01:26.344Z,40.31
2023-04-14T13:03:53.072Z,41.26
2023-04-14T13:06:19.529Z,43.81
2023-04-14T13:08:45.832Z,42.51
2023-04-14T13:11:12.125Z,43.79
2023-04-14T13:13:38.431Z,44.98
2023-04-14T13:16:15.386Z,42.02
2023-04-14T13:18:42.948Z,43.82
2023-04-14T13:21:09.260Z,41.08
2023-04-14T13:23:35.566Z,40.21
2023-04-14T13:26:01.883Z,42.75
2023-04-14T13:28:28.177Z,42.39
2023-04-14T13:30:54.486Z,42.94
2023-04-14T13:33:22.666Z,41.50
2023-04-14T13:35:48.967Z,41.31
2023-04-14T13:38:16.377Z,41.57
2023-04-14T13:40:42.685Z,41.53
2023-04-14T13:43:08.992Z,41.41
2023-04-14T13:45:35.305Z,41.47
2023-04-14T13:48:01.785Z,41.89
2023-04-14T13:50:28.116Z,42.37
2023-04-14T13:52:54.422Z,40.61
2023-04-14T13:55:20.754Z,41.78
2023-04-14T13:57:47.047Z,39.54
2023-04-14T14:00:13.343Z,39.56
2023-04-14T14:02:39.859Z,39.90
2023-04-14T14:05:06.332Z,41.60
2023-04-14T14:07:32.621Z,42.27
2023-04-14T14:09:58.944Z,40.56
2023-04-14T14:12:25.250Z,40.14
2023-04-14T14:14:51.544Z,40.91
2023-04-14T14:17:17.878Z,41.02
2023-04-14T14:19:44.164Z,40.26
2023-04-14T14:22:10.453Z,40.49
2023-04-14T14:24:36.825Z,39.41
2023-04-14T14:27:03.137Z,38.88
2023-04-14T14:29:29.467Z,41.60
2023-04-14T14:31:55.894Z,40.11
2023-04-14T14:34:22.262Z,40.86
2023-04-14T14:36:48.562Z,41.58
2023-04-14T14:39:15.022Z,43.58
2023-04-14T14:41:41.348Z,42.88
2023-04-14T14:44:07.675Z,40.20
2023-04-14T14:46:34.061Z,40.31
2023-04-14T14:49:00.450Z,39.97
2023-04-14T14:51:26.757Z,40.01
2023-04-14T14:53:57.135Z,40.93
2023-04-14T14:56:27.871Z,41.23
2023-04-14T14:58:54.181Z,41.48
2023-04-14T15:01:20.574Z,40.47
2023-04-14T15:03:46.955Z,39.82
2023-04-14T15:06:13.339Z,40.34
2023-04-14T15:08:39.694Z,39.99
2023-04-14T15:11:05.993Z,40.83
2023-04-14T15:13:32.344Z,41.53
2023-04-14T15:15:58.660Z,40.97
2023-04-14T15:18:24.957Z,39.50
2023-04-14T15:20:51.301Z,39.97
2023-04-14T15:23:17.620Z,40.90
2023-04-14T15:25:43.925Z,38.74
2023-04-14T15:28:10.286Z,39.67
2023-04-14T15:30:36.593Z,39.04
2023-04-14T15:33:02.923Z,38.50
2023-04-14T15:35:29.259Z,37.02
2023-04-14T15:37:55.561Z,37.48
2023-04-14T15:40:21.863Z,37.95
2023-04-14T15:42:48.189Z,40.15
2023-04-14T15:45:14.459Z,41.23
2023-04-14T15:47:40.795Z,41.28
2023-04-14T15:50:09.576Z,41.55
2023-04-14T15:52:36.801Z,40.88
2023-04-14T15:55:03.112Z,39.15
2023-04-14T15:57:29.532Z,39.45
2023-04-14T15:59:55.829Z,40.03
2023-04-14T16:02:22.251Z,40.23
2023-04-14T16:04:48.706Z,40.61
2023-04-14T16:07:15.049Z,41.24
2023-04-14T16:09:41.348Z,40.94
2023-04-14T16:12:07.663Z,42.02
2023-04-14T16:14:33.957Z,41.53
2023-04-14T16:17:00.251Z,39.99
2023-04-14T16:19:26.575Z,41.47
2023-04-14T16:21:52.865Z,43.91
2023-04-14T16:24:19.179Z,43.56
2023-04-14T16:26:45.497Z,43.17
2023-04-14T16:29:11.781Z,42.31
2023-04-14T16:31:38.135Z,43.06
2023-04-14T16:34:04.720Z,42.59
2023-04-14T16:36:31.073Z,42.44
2023-04-14T16:38:57.374Z,40.98
2023-04-14T16:41:23.714Z,40.97
2023-04-14T16:43:50.012Z,41.03
2023-04-14T16:46:16.421Z,39.18
2023-04-14T16:48:42.788Z,39.56
2023-04-14T16:51:09.092Z,42.57
2023-04-14T16:53:35.386Z,44.21
2023-04-14T16:56:01.701Z,43.48
2023-04-14T16:58:28.029Z,42.46
2023-04-14T17:00:54.370Z,40.44
2023-04-14T17:03:20.877Z,40.94
2023-04-14T17:05:47.395Z,40.42
2023-04-14T17:08:13.751Z,40.89
2023-04-14T17:10:40.155Z,40.78
2023-04-14T17:13:06.469Z,40.23
2023-04-14T17:15:32.762Z,40.64
2023-04-14T17:17:59.139Z,41.15
2023-04-14T17:20:25.456Z,40.28
2023-04-14T17:22:51.854Z,40.92
2023-04-14T17:25:19.350Z,39.81
2023-04-14T17:27:45.650Z,39.52
2023-04-14T17:30:12.148Z,39.51
2023-04-14T17:32:38.557Z,39.92
2023-04-14T17:35:04.855Z,40.26
2023-04-14T17:37:31.146Z,40.45
2023-04-14T17:39:57.499Z,41.98
2023-04-14T17:42:23.824Z,41.94
2023-04-14T17:44:50.114Z,40.83
2023-04-14T17:47:16.421Z,40.74
2023-04-14T17:49:42.725Z,41.47
2023-04-14T17:52:09.027Z,41.04
2023-04-14T17:54:35.346Z,41.48
2023-04-14T17:57:01.658Z,42.33
2023-04-14T17:59:28.022Z,41.93
2023-04-14T18:01:54.420Z,43.42
2023-04-14T18:04:20.814Z,43.30
2023-04-14T18:06:47.133Z,42.05
2023-04-14T18:09:13.459Z,42.67
2023-04-14T18:11:39.757Z,42.99
2023-04-14T18:14:06.059Z,42.56
2023-04-14T18:16:32.399Z,43.30
2023-04-14T18:18:58.869Z,42.46
2023-04-14T18:21:25.341Z,42.70
2023-04-14T18:28:50.048Z,43.43
2023-04-14T18:31:16.404Z,43.35
2023-04-14T18:33:42.726Z,44.96
2023-04-14T18:36:09.042Z,46.10
2023-04-14T18:38:35.352Z,47.17
2023-04-14T18:41:01.692Z,46.19
2023-04-14T18:43:28.014Z,45.36
2023-04-14T18:45:54.426Z,46.81
2023-04-14T18:48:20.759Z,47.59
2023-04-14T18:50:47.049Z,47.00
2023-04-14T18:53:13.365Z,47.96
2023-04-14T18:55:45.295Z,47.89
2023-04-14T18:58:12.167Z,48.51
2023-04-14T19:00:38.541Z,48.36
2023-04-14T19:03:04.936Z,48.79
2023-04-14T19:05:31.338Z,48.81
2023-04-14T19:07:57.674Z,48.57
2023-04-14T19:10:24.001Z,49.31
2023-04-14T19:12:50.337Z,50.87
2023-04-14T19:15:16.643Z,51.63
2023-04-14T19:17:42.959Z,52.84
2023-04-14T19:20:09.275Z,55.04
2023-04-14T19:22:35.600Z,56.90
2023-04-14T19:25:01.907Z,57.61
2023-04-14T19:27:28.190Z,58.70
2023-04-14T19:29:54.510Z,57.42
2023-04-14T19:32:20.827Z,56.91
2023-04-14T19:34:47.128Z,58.36
2023-04-14T19:37:13.444Z,58.86
2023-04-14T19:39:39.738Z,58.83
2023-04-14T19:42:06.032Z,58.81
2023-04-14T19:44:32.347Z,59.90
2023-04-14T19:46:58.723Z,58.97
2023-04-14T19:49:25.109Z,59.08
2023-04-14T19:51:51.456Z,58.69
2023-04-14T19:54:17.763Z,59.16
2023-04-14T19:56:44.074Z,60.81
2023-04-14T19:59:10.429Z,59.98
2023-04-14T20:01:36.816Z,59.87
2023-04-14T20:04:08.341Z,59.88
2023-04-14T20:06:39.175Z,60.20
2023-04-14T20:09:05.471Z,60.76
2023-04-14T20:11:31.789Z,60.63
2023-04-14T20:13:58.091Z,59.53
2023-04-14T20:16:24.438Z,60.42
2023-04-14T20:18:50.851Z,60.44
2023-04-14T20:21:17.162Z,62.08
2023-04-14T20:23:43.481Z,64.62
2023-04-14T20:26:09.788Z,62.58
2023-04-14T20:28:36.106Z,60.98
2023-04-14T20:31:02.397Z,60.60
2023-04-14T20:33:28.696Z,61.82
2023-04-14T20:35:55.011Z,61.47
2023-04-14T20:38:21.315Z,62.10
2023-04-14T20:40:47.617Z,60.89
2023-04-14T20:43:14.026Z,61.09
2023-04-14T20:45:40.322Z,59.78
2023-04-14T20:48:06.665Z,59.84
2023-04-14T20:50:33.017Z,59.86
2023-04-14T20:52:59.332Z,60.41
2023-04-14T20:55:25.616Z,61.51
2023-04-14T20:57:51.976Z,60.88
2023-04-14T21:00:18.278Z,59.52
2023-04-14T21:02:44.734Z,60.97
2023-04-14T21:05:11.156Z,61.68
2023-04-14T21:07:37.468Z,60.54
2023-04-14T21:10:03.771Z,59.17
2023-04-14T21:12:35.421Z,59.74
2023-04-14T21:15:44.218Z,59.92
2023-04-14T21:17:48.817Z,63.16
2023-04-14T21:20:15.118Z,61.36
2023-04-14T21:22:41.414Z,59.83
2023-04-14T21:25:07.731Z,59.04
2023-04-14T21:27:34.020Z,57.53
2023-04-14T21:30:00.310Z,60.11
2023-04-14T21:32:26.670Z,60.51
2023-04-14T21:34:52.958Z,62.78
2023-04-14T21:37:19.257Z,63.48
2023-04-14T21:39:45.565Z,63.47
2023-04-14T21:42:11.862Z,63.23
2023-04-14T21:44:38.157Z,62.36
2023-04-14T21:47:04.454Z,60.88
2023-04-14T21:49:30.746Z,61.76
2023-04-14T21:51:57.050Z,61.22
2023-04-14T21:54:23.346Z,60.89
2023-04-14T21:56:49.645Z,60.88
2023-04-14T21:59:15.942Z,61.96
2023-04-14T22:01:42.314Z,62.95
2023-04-14T22:04:08.718Z,60.68
2023-04-14T22:06:35.067Z,59.32
2023-04-14T22:09:01.569Z,59.44
2023-04-14T22:11:28.139Z,59.42
2023-04-14T22:13:54.438Z,60.95
2023-04-14T22:16:20.776Z,61.39
2023-04-14T22:18:47.108Z,62.49
2023-04-14T22:21:13.394Z,60.94
2023-04-14T22:23:39.697Z,61.16
2023-04-14T22:26:05.989Z,62.68
2023-04-14T22:28:32.424Z,61.62
2023-04-14T22:30:58.767Z,62.82
2023-04-14T22:33:25.046Z,61.83
2023-04-14T22:35:51.482Z,61.01
2023-04-14T22:38:17.788Z,61.30
2023-04-14T22:40:44.069Z,61.69
2023-04-14T22:43:10.344Z,61.51
2023-04-14T22:45:36.645Z,61.73
2023-04-14T22:48:02.942Z,62.99
2023-04-14T22:50:29.231Z,62.20
2023-04-14T22:52:55.525Z,61.31
2023-04-14T22:55:21.795Z,61.41
2023-04-14T22:57:48.086Z,61.86
2023-04-14T23:00:14.382Z,61.78
2023-04-14T23:02:40.798Z,63.18
2023-04-14T23:05:07.214Z,61.50
2023-04-14T23:07:33.559Z,61.11
2023-04-14T23:09:59.842Z,61.52
2023-04-14T23:12:26.129Z,59.75
2023-04-14T23:14:52.507Z,60.46
2023-04-14T23:17:18.810Z,60.56
2023-04-14T23:19:45.125Z,60.32
2023-04-14T23:22:11.438Z,60.04
2023-04-14T23:24:37.727Z,59.87
2023-04-14T23:27:04.006Z,62.23
2023-04-14T23:29:30.314Z,59.98
2023-04-14T23:31:56.825Z,61.13
2023-04-14T23:34:23.279Z,59.74
2023-04-14T23:36:49.616Z,60.78
2023-04-14T23:39:15.915Z,60.86
2023-04-14T23:41:42.224Z,61.33
2023-04-14T23:44:08.573Z,62.18
2023-04-14T23:46:34.889Z,63.23
2023-04-14T23:49:03.041Z,64.08
2023-04-14T23:51:47.470Z,65.16
2023-04-14T23:54:13.763Z,66.04
2023-04-14T23:56:40.053Z,65.78
2023-04-14T23:59:06.363Z,64.86
